sensor_id;sensor_type;location;lat;lon;timestamp;P1;durP1;ratioP1;P2;durP2;ratioP2
12171;SDS011;6149;52.418;13.668;2023-05-07T00:01:36;17.63;;;14.37;;
12171;SDS011;6149;52.418;13.668;2023-05-07T00:04:02;18.93;;;16.03;;
12171;SDS011;6149;52.418;13.668;2023-05-07T00:06:31;17.47;;;15.63;;
12171;SDS011;6149;52.418;13.668;2023-05-07T00:08:58;16.57;;;14.83;;
12171;SDS011;6149;52.418;13.668;2023-05-07T00:11:28;15.93;;;14.23;;
12171;SDS011;6149;52.418;13.668;2023-05-07T00:13:54;16.57;;;13.70;;
12171;SDS011;6149;52.418;13.668;2023-05-07T00:16:22;15.57;;;13.87;;
12171;SDS011;6149;52.418;13.668;2023-05-07T00:18:52;17.23;;;13.47;;
12171;SDS011;6149;52.418;13.668;2023-05-07T00:21:18;14.83;;;12.80;;
12171;SDS011;6149;52.418;13.668;2023-05-07T00:23:48;16.63;;;14.20;;
12171;SDS011;6149;52.418;13.668;2023-05-07T00:26:15;15.27;;;13.67;;
12171;SDS011;6149;52.418;13.668;2023-05-07T00:28:43;14.23;;;12.30;;
12171;SDS011;6149;52.418;13.668;2023-05-07T00:31:09;13.60;;;11.93;;
12171;SDS011;6149;52.418;13.668;2023-05-07T00:33:37;14.77;;;12.00;;
12171;SDS011;6149;52.418;13.668;2023-05-07T00:36:04;13.50;;;12.10;;
12171;SDS011;6149;52.418;13.668;2023-05-07T00:38:31;16.33;;;12.87;;
12171;SDS011;6149;52.418;13.668;2023-05-07T00:40:58;13.97;;;12.47;;
12171;SDS011;6149;52.418;13.668;2023-05-07T00:43:26;13.30;;;11.97;;
12171;SDS011;6149;52.418;13.668;2023-05-07T00:45:57;13.97;;;12.50;;
12171;SDS011;6149;52.418;13.668;2023-05-07T00:48:25;16.20;;;13.27;;
12171;SDS011;6149;52.418;13.668;2023-05-07T00:50:53;13.93;;;12.50;;
12171;SDS011;6149;52.418;13.668;2023-05-07T00:53:20;15.27;;;13.53;;
12171;SDS011;6149;52.418;13.668;2023-05-07T00:55:51;15.80;;;14.10;;
12171;SDS011;6149;52.418;13.668;2023-05-07T00:58:23;15.23;;;13.50;;
12171;SDS011;6149;52.418;13.668;2023-05-07T01:00:54;15.23;;;13.63;;
12171;SDS011;6149;52.418;13.668;2023-05-07T01:03:22;15.10;;;13.60;;
12171;SDS011;6149;52.418;13.668;2023-05-07T01:05:50;16.10;;;13.17;;
12171;SDS011;6149;52.418;13.668;2023-05-07T01:08:19;15.67;;;13.97;;
12171;SDS011;6149;52.418;13.668;2023-05-07T01:10:50;15.23;;;12.67;;
12171;SDS011;6149;52.418;13.668;2023-05-07T01:13:26;15.33;;;12.93;;
12171;SDS011;6149;52.418;13.668;2023-05-07T01:15:55;15.37;;;12.77;;
12171;SDS011;6149;52.418;13.668;2023-05-07T01:18:24;16.47;;;13.10;;
12171;SDS011;6149;52.418;13.668;2023-05-07T01:20:51;15.10;;;13.43;;
12171;SDS011;6149;52.418;13.668;2023-05-07T01:23:25;16.57;;;14.40;;
12171;SDS011;6149;52.418;13.668;2023-05-07T01:25:55;14.97;;;13.40;;
12171;SDS011;6149;52.418;13.668;2023-05-07T01:28:23;15.00;;;13.37;;
12171;SDS011;6149;52.418;13.668;2023-05-07T01:30:54;15.53;;;13.33;;
12171;SDS011;6149;52.418;13.668;2023-05-07T01:33:27;14.63;;;13.17;;
12171;SDS011;6149;52.418;13.668;2023-05-07T01:35:58;15.53;;;13.10;;
12171;SDS011;6149;52.418;13.668;2023-05-07T01:38:28;16.93;;;13.80;;
12171;SDS011;6149;52.418;13.668;2023-05-07T01:40:56;14.70;;;13.20;;
12171;SDS011;6149;52.418;13.668;2023-05-07T01:43:25;18.27;;;13.90;;
12171;SDS011;6149;52.418;13.668;2023-05-07T01:45:52;16.67;;;13.90;;
12171;SDS011;6149;52.418;13.668;2023-05-07T01:48:22;15.33;;;13.33;;
12171;SDS011;6149;52.418;13.668;2023-05-07T01:50:51;14.97;;;13.27;;
12171;SDS011;6149;52.418;13.668;2023-05-07T01:53:19;17.13;;;13.37;;
12171;SDS011;6149;52.418;13.668;2023-05-07T01:55:56;14.53;;;13.07;;
12171;SDS011;6149;52.418;13.668;2023-05-07T01:58:23;16.03;;;14.20;;
12171;SDS011;6149;52.418;13.668;2023-05-07T02:00:52;15.83;;;13.03;;
12171;SDS011;6149;52.418;13.668;2023-05-07T02:03:20;14.23;;;12.73;;
12171;SDS011;6149;52.418;13.668;2023-05-07T02:05:52;15.13;;;13.13;;
12171;SDS011;6149;52.418;13.668;2023-05-07T02:08:22;18.07;;;15.07;;
12171;SDS011;6149;52.418;13.668;2023-05-07T02:10:50;14.87;;;13.00;;
12171;SDS011;6149;52.418;13.668;2023-05-07T02:13:26;16.77;;;13.80;;
12171;SDS011;6149;52.418;13.668;2023-05-07T02:15:55;16.87;;;13.13;;
12171;SDS011;6149;52.418;13.668;2023-05-07T02:18:22;16.30;;;14.67;;
12171;SDS011;6149;52.418;13.668;2023-05-07T02:20:50;15.53;;;12.63;;
12171;SDS011;6149;52.418;13.668;2023-05-07T02:23:17;16.47;;;13.00;;
12171;SDS011;6149;52.418;13.668;2023-05-07T02:25:44;14.93;;;13.30;;
12171;SDS011;6149;52.418;13.668;2023-05-07T02:28:11;14.77;;;13.27;;
12171;SDS011;6149;52.418;13.668;2023-05-07T02:30:41;16.33;;;13.70;;
12171;SDS011;6149;52.418;13.668;2023-05-07T02:33:10;14.73;;;13.23;;
12171;SDS011;6149;52.418;13.668;2023-05-07T02:35:37;15.50;;;13.23;;
12171;SDS011;6149;52.418;13.668;2023-05-07T02:38:04;15.20;;;13.40;;
12171;SDS011;6149;52.418;13.668;2023-05-07T02:40:31;15.80;;;13.77;;
12171;SDS011;6149;52.418;13.668;2023-05-07T02:43:02;16.97;;;13.87;;
12171;SDS011;6149;52.418;13.668;2023-05-07T02:45:29;13.80;;;12.27;;
12171;SDS011;6149;52.418;13.668;2023-05-07T02:48:02;17.17;;;14.37;;
12171;SDS011;6149;52.418;13.668;2023-05-07T02:50:30;17.23;;;14.77;;
12171;SDS011;6149;52.418;13.668;2023-05-07T02:52:58;17.30;;;13.60;;
12171;SDS011;6149;52.418;13.668;2023-05-07T02:55:26;15.00;;;13.40;;
12171;SDS011;6149;52.418;13.668;2023-05-07T02:57:54;16.90;;;14.07;;
12171;SDS011;6149;52.418;13.668;2023-05-07T03:00:22;18.27;;;14.67;;
12171;SDS011;6149;52.418;13.668;2023-05-07T03:02:50;17.47;;;14.67;;
12171;SDS011;6149;52.418;13.668;2023-05-07T03:05:23;18.93;;;15.23;;
12171;SDS011;6149;52.418;13.668;2023-05-07T03:07:51;16.10;;;14.40;;
12171;SDS011;6149;52.418;13.668;2023-05-07T03:10:27;15.93;;;14.17;;
12171;SDS011;6149;52.418;13.668;2023-05-07T03:12:55;16.20;;;14.57;;
12171;SDS011;6149;52.418;13.668;2023-05-07T03:15:23;17.53;;;14.80;;
12171;SDS011;6149;52.418;13.668;2023-05-07T03:17:50;15.80;;;13.40;;
12171;SDS011;6149;52.418;13.668;2023-05-07T03:20:19;15.40;;;13.60;;
12171;SDS011;6149;52.418;13.668;2023-05-07T03:22:54;18.03;;;14.33;;
12171;SDS011;6149;52.418;13.668;2023-05-07T03:25:21;15.57;;;13.87;;
12171;SDS011;6149;52.418;13.668;2023-05-07T03:27:51;15.20;;;13.30;;
12171;SDS011;6149;52.418;13.668;2023-05-07T03:30:20;16.43;;;12.87;;
12171;SDS011;6149;52.418;13.668;2023-05-07T03:32:55;16.33;;;14.63;;
12171;SDS011;6149;52.418;13.668;2023-05-07T03:35:22;16.10;;;13.43;;
12171;SDS011;6149;52.418;13.668;2023-05-07T03:37:56;15.33;;;13.73;;
12171;SDS011;6149;52.418;13.668;2023-05-07T03:40:23;15.37;;;13.77;;
12171;SDS011;6149;52.418;13.668;2023-05-07T03:42:53;17.17;;;13.60;;
12171;SDS011;6149;52.418;13.668;2023-05-07T03:45:19;15.70;;;14.00;;
12171;SDS011;6149;52.418;13.668;2023-05-07T03:47:48;17.17;;;14.17;;
12171;SDS011;6149;52.418;13.668;2023-05-07T03:50:15;15.97;;;14.27;;
12171;SDS011;6149;52.418;13.668;2023-05-07T03:52:41;14.43;;;12.90;;
12171;SDS011;6149;52.418;13.668;2023-05-07T03:55:09;15.80;;;13.90;;
12171;SDS011;6149;52.418;13.668;2023-05-07T03:57:36;15.60;;;13.60;;
12171;SDS011;6149;52.418;13.668;2023-05-07T04:00:07;16.67;;;14.10;;
12171;SDS011;6149;52.418;13.668;2023-05-07T04:02:35;16.37;;;13.73;;
12171;SDS011;6149;52.418;13.668;2023-05-07T04:05:01;15.00;;;12.77;;
12171;SDS011;6149;52.418;13.668;2023-05-07T04:07:28;15.97;;;14.30;;
12171;SDS011;6149;52.418;13.668;2023-05-07T04:09:57;15.50;;;13.57;;
12171;SDS011;6149;52.418;13.668;2023-05-07T04:12:29;14.13;;;12.63;;
12171;SDS011;6149;52.418;13.668;2023-05-07T04:14:58;14.17;;;12.67;;
12171;SDS011;6149;52.418;13.668;2023-05-07T04:17:26;13.83;;;12.33;;
12171;SDS011;6149;52.418;13.668;2023-05-07T04:19:53;15.30;;;12.80;;
12171;SDS011;6149;52.418;13.668;2023-05-07T04:22:23;16.23;;;12.87;;
12171;SDS011;6149;52.418;13.668;2023-05-07T04:24:50;14.10;;;12.17;;
12171;SDS011;6149;52.418;13.668;2023-05-07T04:27:19;17.40;;;12.80;;
12171;SDS011;6149;52.418;13.668;2023-05-07T04:29:47;17.37;;;12.70;;
12171;SDS011;6149;52.418;13.668;2023-05-07T04:32:14;14.23;;;12.60;;
12171;SDS011;6149;52.418;13.668;2023-05-07T04:34:41;13.27;;;11.97;;
12171;SDS011;6149;52.418;13.668;2023-05-07T04:37:10;14.60;;;11.90;;
12171;SDS011;6149;52.418;13.668;2023-05-07T04:39:37;12.40;;;11.00;;
12171;SDS011;6149;52.418;13.668;2023-05-07T04:42:03;15.63;;;11.80;;
12171;SDS011;6149;52.418;13.668;2023-05-07T04:44:32;14.53;;;11.60;;
12171;SDS011;6149;52.418;13.668;2023-05-07T04:47:01;13.67;;;12.13;;
12171;SDS011;6149;52.418;13.668;2023-05-07T04:49:29;13.33;;;10.70;;
12171;SDS011;6149;52.418;13.668;2023-05-07T04:51:56;12.23;;;11.03;;
12171;SDS011;6149;52.418;13.668;2023-05-07T04:54:25;12.37;;;11.13;;
12171;SDS011;6149;52.418;13.668;2023-05-07T04:56:52;13.07;;;10.97;;
12171;SDS011;6149;52.418;13.668;2023-05-07T04:59:19;11.70;;;10.50;;
12171;SDS011;6149;52.418;13.668;2023-05-07T05:01:48;11.47;;;10.33;;
12171;SDS011;6149;52.418;13.668;2023-05-07T05:04:16;13.97;;;11.30;;
12171;SDS011;6149;52.418;13.668;2023-05-07T05:06:43;12.27;;;10.27;;
12171;SDS011;6149;52.418;13.668;2023-05-07T05:09:10;12.23;;;10.47;;
12171;SDS011;6149;52.418;13.668;2023-05-07T05:11:37;10.77;;;9.77;;
12171;SDS011;6149;52.418;13.668;2023-05-07T05:14:04;11.37;;;10.20;;
12171;SDS011;6149;52.418;13.668;2023-05-07T05:16:31;11.43;;;10.00;;
12171;SDS011;6149;52.418;13.668;2023-05-07T05:19:01;12.03;;;10.17;;
12171;SDS011;6149;52.418;13.668;2023-05-07T05:21:31;12.20;;;10.30;;
12171;SDS011;6149;52.418;13.668;2023-05-07T05:24:00;12.50;;;9.83;;
12171;SDS011;6149;52.418;13.668;2023-05-07T05:26:27;10.67;;;9.27;;
12171;SDS011;6149;52.418;13.668;2023-05-07T05:28:55;11.40;;;9.43;;
12171;SDS011;6149;52.418;13.668;2023-05-07T05:31:23;10.57;;;9.47;;
12171;SDS011;6149;52.418;13.668;2023-05-07T05:33:50;12.80;;;10.40;;
12171;SDS011;6149;52.418;13.668;2023-05-07T05:36:19;12.70;;;9.50;;
12171;SDS011;6149;52.418;13.668;2023-05-07T05:38:51;11.50;;;9.80;;
12171;SDS011;6149;52.418;13.668;2023-05-07T05:41:21;10.80;;;9.23;;
12171;SDS011;6149;52.418;13.668;2023-05-07T05:43:49;11.17;;;9.10;;
12171;SDS011;6149;52.418;13.668;2023-05-07T05:46:15;12.53;;;9.73;;
12171;SDS011;6149;52.418;13.668;2023-05-07T05:48:42;9.97;;;9.00;;
12171;SDS011;6149;52.418;13.668;2023-05-07T05:51:09;10.20;;;8.77;;
12171;SDS011;6149;52.418;13.668;2023-05-07T05:53:36;12.17;;;10.07;;
12171;SDS011;6149;52.418;13.668;2023-05-07T05:56:08;12.63;;;9.27;;
12171;SDS011;6149;52.418;13.668;2023-05-07T05:58:34;10.13;;;8.70;;
12171;SDS011;6149;52.418;13.668;2023-05-07T06:01:01;12.67;;;9.37;;
12171;SDS011;6149;52.418;13.668;2023-05-07T06:03:29;11.10;;;8.80;;
12171;SDS011;6149;52.418;13.668;2023-05-07T06:05:57;10.03;;;8.73;;
12171;SDS011;6149;52.418;13.668;2023-05-07T06:08:28;10.13;;;9.13;;
12171;SDS011;6149;52.418;13.668;2023-05-07T06:10:55;11.83;;;9.70;;
12171;SDS011;6149;52.418;13.668;2023-05-07T06:13:27;10.77;;;8.77;;
12171;SDS011;6149;52.418;13.668;2023-05-07T06:15:54;10.30;;;9.07;;
12171;SDS011;6149;52.418;13.668;2023-05-07T06:18:22;10.20;;;8.80;;
12171;SDS011;6149;52.418;13.668;2023-05-07T06:20:51;12.10;;;9.93;;
12171;SDS011;6149;52.418;13.668;2023-05-07T06:23:19;11.00;;;8.93;;
12171;SDS011;6149;52.418;13.668;2023-05-07T06:25:48;9.43;;;8.00;;
12171;SDS011;6149;52.418;13.668;2023-05-07T06:28:15;10.70;;;8.30;;
12171;SDS011;6149;52.418;13.668;2023-05-07T06:30:43;10.83;;;9.00;;
12171;SDS011;6149;52.418;13.668;2023-05-07T06:33:10;11.33;;;8.67;;
12171;SDS011;6149;52.418;13.668;2023-05-07T06:35:39;12.40;;;8.47;;
12171;SDS011;6149;52.418;13.668;2023-05-07T06:38:05;8.70;;;7.80;;
12171;SDS011;6149;52.418;13.668;2023-05-07T06:40:32;10.90;;;8.20;;
12171;SDS011;6149;52.418;13.668;2023-05-07T06:42:59;9.20;;;8.30;;
12171;SDS011;6149;52.418;13.668;2023-05-07T06:45:27;9.37;;;7.60;;
12171;SDS011;6149;52.418;13.668;2023-05-07T06:47:56;9.27;;;7.67;;
12171;SDS011;6149;52.418;13.668;2023-05-07T06:50:24;8.23;;;7.00;;
12171;SDS011;6149;52.418;13.668;2023-05-07T06:52:53;8.70;;;7.80;;
12171;SDS011;6149;52.418;13.668;2023-05-07T06:55:21;8.00;;;7.20;;
12171;SDS011;6149;52.418;13.668;2023-05-07T06:57:49;7.63;;;6.70;;
12171;SDS011;6149;52.418;13.668;2023-05-07T07:00:16;7.00;;;6.30;;
12171;SDS011;6149;52.418;13.668;2023-05-07T07:02:45;9.30;;;6.77;;
12171;SDS011;6149;52.418;13.668;2023-05-07T07:05:13;7.00;;;5.87;;
12171;SDS011;6149;52.418;13.668;2023-05-07T07:07:41;7.53;;;5.77;;
12171;SDS011;6149;52.418;13.668;2023-05-07T07:10:18;6.93;;;6.10;;
12171;SDS011;6149;52.418;13.668;2023-05-07T07:12:45;6.13;;;5.50;;
12171;SDS011;6149;52.418;13.668;2023-05-07T07:15:13;7.37;;;5.57;;
12171;SDS011;6149;52.418;13.668;2023-05-07T07:17:40;6.83;;;5.80;;
12171;SDS011;6149;52.418;13.668;2023-05-07T07:20:09;7.53;;;5.33;;
12171;SDS011;6149;52.418;13.668;2023-05-07T07:22:39;7.63;;;5.20;;
12171;SDS011;6149;52.418;13.668;2023-05-07T07:25:10;5.63;;;5.13;;
12171;SDS011;6149;52.418;13.668;2023-05-07T07:27:39;5.40;;;4.90;;
12171;SDS011;6149;52.418;13.668;2023-05-07T07:30:07;5.80;;;4.90;;
12171;SDS011;6149;52.418;13.668;2023-05-07T07:32:34;6.23;;;5.00;;
12171;SDS011;6149;52.418;13.668;2023-05-07T07:35:04;6.80;;;5.10;;
12171;SDS011;6149;52.418;13.668;2023-05-07T07:37:33;5.43;;;4.93;;
12171;SDS011;6149;52.418;13.668;2023-05-07T07:40:05;6.07;;;5.20;;
12171;SDS011;6149;52.418;13.668;2023-05-07T07:42:33;5.83;;;5.03;;
12171;SDS011;6149;52.418;13.668;2023-05-07T07:45:02;6.07;;;5.47;;
12171;SDS011;6149;52.418;13.668;2023-05-07T07:47:30;5.37;;;4.87;;
12171;SDS011;6149;52.418;13.668;2023-05-07T07:50:01;5.60;;;5.10;;
12171;SDS011;6149;52.418;13.668;2023-05-07T07:52:33;6.13;;;4.10;;
12171;SDS011;6149;52.418;13.668;2023-05-07T07:54:59;5.93;;;5.10;;
12171;SDS011;6149;52.418;13.668;2023-05-07T07:57:28;5.20;;;4.67;;
12171;SDS011;6149;52.418;13.668;2023-05-07T07:59:59;6.93;;;4.50;;
12171;SDS011;6149;52.418;13.668;2023-05-07T08:02:25;5.83;;;4.27;;
12171;SDS011;6149;52.418;13.668;2023-05-07T08:04:55;4.73;;;4.17;;
12171;SDS011;6149;52.418;13.668;2023-05-07T08:07:23;4.80;;;4.10;;
12171;SDS011;6149;52.418;13.668;2023-05-07T08:09:50;4.27;;;3.73;;
12171;SDS011;6149;52.418;13.668;2023-05-07T08:12:20;4.60;;;4.20;;
12171;SDS011;6149;52.418;13.668;2023-05-07T08:14:49;8.80;;;3.60;;
12171;SDS011;6149;52.418;13.668;2023-05-07T08:17:27;4.73;;;3.50;;
12171;SDS011;6149;52.418;13.668;2023-05-07T08:19:54;4.73;;;3.30;;
12171;SDS011;6149;52.418;13.668;2023-05-07T08:22:21;4.07;;;3.10;;
12171;SDS011;6149;52.418;13.668;2023-05-07T08:24:54;5.90;;;3.13;;
12171;SDS011;6149;52.418;13.668;2023-05-07T08:27:21;5.20;;;3.37;;
12171;SDS011;6149;52.418;13.668;2023-05-07T08:29:50;3.97;;;3.40;;
12171;SDS011;6149;52.418;13.668;2023-05-07T08:32:17;6.87;;;3.03;;
12171;SDS011;6149;52.418;13.668;2023-05-07T08:34:43;4.93;;;2.77;;
12171;SDS011;6149;52.418;13.668;2023-05-07T08:37:14;3.57;;;3.20;;
12171;SDS011;6149;52.418;13.668;2023-05-07T08:39:40;3.17;;;2.60;;
12171;SDS011;6149;52.418;13.668;2023-05-07T08:42:07;6.37;;;2.90;;
12171;SDS011;6149;52.418;13.668;2023-05-07T08:44:45;3.00;;;2.63;;
12171;SDS011;6149;52.418;13.668;2023-05-07T08:47:16;3.57;;;2.77;;
12171;SDS011;6149;52.418;13.668;2023-05-07T08:49:44;3.73;;;2.70;;
12171;SDS011;6149;52.418;13.668;2023-05-07T08:52:15;3.53;;;2.97;;
12171;SDS011;6149;52.418;13.668;2023-05-07T08:54:41;3.23;;;2.93;;
12171;SDS011;6149;52.418;13.668;2023-05-07T08:57:10;3.47;;;2.70;;
12171;SDS011;6149;52.418;13.668;2023-05-07T08:59:36;3.73;;;3.13;;
12171;SDS011;6149;52.418;13.668;2023-05-07T09:02:06;4.40;;;2.40;;
12171;SDS011;6149;52.418;13.668;2023-05-07T09:04:39;2.70;;;2.30;;
12171;SDS011;6149;52.418;13.668;2023-05-07T09:07:06;3.17;;;2.43;;
12171;SDS011;6149;52.418;13.668;2023-05-07T09:09:34;2.97;;;2.37;;
12171;SDS011;6149;52.418;13.668;2023-05-07T09:12:03;3.43;;;3.13;;
12171;SDS011;6149;52.418;13.668;2023-05-07T09:14:30;4.53;;;3.50;;
12171;SDS011;6149;52.418;13.668;2023-05-07T09:16:58;3.47;;;3.17;;
12171;SDS011;6149;52.418;13.668;2023-05-07T09:19:26;3.20;;;2.90;;
12171;SDS011;6149;52.418;13.668;2023-05-07T09:22:01;4.30;;;3.20;;
12171;SDS011;6149;52.418;13.668;2023-05-07T09:24:31;4.03;;;3.10;;
12171;SDS011;6149;52.418;13.668;2023-05-07T09:27:01;3.47;;;2.77;;
12171;SDS011;6149;52.418;13.668;2023-05-07T09:29:29;3.17;;;2.77;;
12171;SDS011;6149;52.418;13.668;2023-05-07T09:32:00;3.60;;;2.80;;
12171;SDS011;6149;52.418;13.668;2023-05-07T09:34:29;2.97;;;2.40;;
12171;SDS011;6149;52.418;13.668;2023-05-07T09:36:58;3.23;;;2.53;;
12171;SDS011;6149;52.418;13.668;2023-05-07T09:39:37;3.17;;;2.60;;
12171;SDS011;6149;52.418;13.668;2023-05-07T09:42:05;1.90;;;1.80;;
12171;SDS011;6149;52.418;13.668;2023-05-07T09:44:33;3.67;;;2.00;;
12171;SDS011;6149;52.418;13.668;2023-05-07T09:47:00;2.33;;;2.07;;
12171;SDS011;6149;52.418;13.668;2023-05-07T09:49:33;2.47;;;1.77;;
12171;SDS011;6149;52.418;13.668;2023-05-07T09:52:04;2.67;;;1.83;;
12171;SDS011;6149;52.418;13.668;2023-05-07T09:54:35;2.13;;;1.93;;
12171;SDS011;6149;52.418;13.668;2023-05-07T09:57:04;3.67;;;1.90;;
12171;SDS011;6149;52.418;13.668;2023-05-07T09:59:33;3.57;;;2.30;;
12171;SDS011;6149;52.418;13.668;2023-05-07T10:02:00;3.47;;;1.73;;
12171;SDS011;6149;52.418;13.668;2023-05-07T10:04:28;2.43;;;1.80;;
12171;SDS011;6149;52.418;13.668;2023-05-07T10:06:59;3.00;;;1.70;;
12171;SDS011;6149;52.418;13.668;2023-05-07T10:09:28;2.20;;;1.93;;
12171;SDS011;6149;52.418;13.668;2023-05-07T10:11:58;2.27;;;1.97;;
12171;SDS011;6149;52.418;13.668;2023-05-07T10:14:33;2.10;;;1.63;;
12171;SDS011;6149;52.418;13.668;2023-05-07T10:17:02;3.73;;;1.83;;
12171;SDS011;6149;52.418;13.668;2023-05-07T10:19:29;2.17;;;1.80;;
12171;SDS011;6149;52.418;13.668;2023-05-07T10:21:59;1.63;;;1.53;;
12171;SDS011;6149;52.418;13.668;2023-05-07T10:24:33;1.67;;;1.43;;
12171;SDS011;6149;52.418;13.668;2023-05-07T10:27:02;1.97;;;1.57;;
12171;SDS011;6149;52.418;13.668;2023-05-07T10:29:37;3.10;;;1.97;;
12171;SDS011;6149;52.418;13.668;2023-05-07T10:32:19;2.30;;;1.83;;
12171;SDS011;6149;52.418;13.668;2023-05-07T10:35:02;2.03;;;1.83;;
12171;SDS011;6149;52.418;13.668;2023-05-07T10:37:33;2.53;;;2.20;;
12171;SDS011;6149;52.418;13.668;2023-05-07T10:40:01;3.73;;;1.93;;
12171;SDS011;6149;52.418;13.668;2023-05-07T10:42:29;2.23;;;2.03;;
12171;SDS011;6149;52.418;13.668;2023-05-07T10:44:56;2.67;;;2.17;;
12171;SDS011;6149;52.418;13.668;2023-05-07T10:47:22;3.27;;;1.80;;
12171;SDS011;6149;52.418;13.668;2023-05-07T11:02:07;2.73;;;1.70;;
12171;SDS011;6149;52.418;13.668;2023-05-07T11:04:36;2.83;;;1.70;;
12171;SDS011;6149;52.418;13.668;2023-05-07T11:07:27;2.90;;;1.83;;
12171;SDS011;6149;52.418;13.668;2023-05-07T11:09:57;2.13;;;1.40;;
12171;SDS011;6149;52.418;13.668;2023-05-07T11:15:38;1.93;;;1.73;;
12171;SDS011;6149;52.418;13.668;2023-05-07T11:18:13;3.07;;;2.00;;
12171;SDS011;6149;52.418;13.668;2023-05-07T11:20:55;2.07;;;1.70;;
12171;SDS011;6149;52.418;13.668;2023-05-07T11:26:28;2.90;;;1.90;;
12171;SDS011;6149;52.418;13.668;2023-05-07T11:29:01;2.63;;;2.00;;
12171;SDS011;6149;52.418;13.668;2023-05-07T11:31:28;2.47;;;2.20;;
12171;SDS011;6149;52.418;13.668;2023-05-07T11:33:55;2.80;;;1.67;;
12171;SDS011;6149;52.418;13.668;2023-05-07T11:36:22;3.77;;;2.20;;
12171;SDS011;6149;52.418;13.668;2023-05-07T11:38:55;2.57;;;1.77;;
12171;SDS011;6149;52.418;13.668;2023-05-07T11:41:21;3.83;;;2.00;;
12171;SDS011;6149;52.418;13.668;2023-05-07T11:43:56;4.30;;;2.33;;
12171;SDS011;6149;52.418;13.668;2023-05-07T11:46:27;1.90;;;1.70;;
12171;SDS011;6149;52.418;13.668;2023-05-07T11:48:56;2.03;;;1.73;;
12171;SDS011;6149;52.418;13.668;2023-05-07T11:51:23;2.03;;;1.50;;
12171;SDS011;6149;52.418;13.668;2023-05-07T11:53:52;2.10;;;1.83;;
12171;SDS011;6149;52.418;13.668;2023-05-07T11:56:21;2.30;;;1.67;;
12171;SDS011;6149;52.418;13.668;2023-05-07T11:58:49;2.83;;;1.50;;
12171;SDS011;6149;52.418;13.668;2023-05-07T12:01:18;2.00;;;1.53;;
12171;SDS011;6149;52.418;13.668;2023-05-07T12:03:45;1.50;;;1.40;;
12171;SDS011;6149;52.418;13.668;2023-05-07T12:06:12;2.20;;;1.60;;
12171;SDS011;6149;52.418;13.668;2023-05-07T12:08:42;3.10;;;1.87;;
12171;SDS011;6149;52.418;13.668;2023-05-07T12:11:13;2.87;;;1.53;;
12171;SDS011;6149;52.418;13.668;2023-05-07T12:13:43;1.73;;;1.53;;
12171;SDS011;6149;52.418;13.668;2023-05-07T12:16:09;5.73;;;1.90;;
12171;SDS011;6149;52.418;13.668;2023-05-07T12:18:38;2.30;;;1.70;;
12171;SDS011;6149;52.418;13.668;2023-05-07T12:21:07;2.37;;;1.60;;
12171;SDS011;6149;52.418;13.668;2023-05-07T12:23:36;1.80;;;1.60;;
12171;SDS011;6149;52.418;13.668;2023-05-07T12:26:04;2.83;;;1.60;;
12171;SDS011;6149;52.418;13.668;2023-05-07T12:28:36;2.50;;;1.93;;
12171;SDS011;6149;52.418;13.668;2023-05-07T12:31:06;2.47;;;1.80;;
12171;SDS011;6149;52.418;13.668;2023-05-07T12:33:33;1.50;;;1.40;;
12171;SDS011;6149;52.418;13.668;2023-05-07T12:36:06;1.60;;;1.30;;
12171;SDS011;6149;52.418;13.668;2023-05-07T12:38:37;2.37;;;1.60;;
12171;SDS011;6149;52.418;13.668;2023-05-07T12:41:05;2.87;;;1.40;;
12171;SDS011;6149;52.418;13.668;2023-05-07T12:43:37;2.30;;;1.40;;
12171;SDS011;6149;52.418;13.668;2023-05-07T12:46:05;1.80;;;1.60;;
12171;SDS011;6149;52.418;13.668;2023-05-07T12:48:35;2.40;;;1.37;;
12171;SDS011;6149;52.418;13.668;2023-05-07T12:51:05;2.03;;;1.30;;
12171;SDS011;6149;52.418;13.668;2023-05-07T12:53:32;3.03;;;1.83;;
12171;SDS011;6149;52.418;13.668;2023-05-07T12:56:00;1.63;;;1.53;;
12171;SDS011;6149;52.418;13.668;2023-05-07T12:58:28;2.37;;;1.63;;
12171;SDS011;6149;52.418;13.668;2023-05-07T13:01:01;1.50;;;1.40;;
12171;SDS011;6149;52.418;13.668;2023-05-07T13:03:33;2.57;;;1.53;;
12171;SDS011;6149;52.418;13.668;2023-05-07T13:06:02;2.23;;;2.03;;
12171;SDS011;6149;52.418;13.668;2023-05-07T13:08:35;2.50;;;1.53;;
12171;SDS011;6149;52.418;13.668;2023-05-07T13:11:06;2.03;;;1.60;;
12171;SDS011;6149;52.418;13.668;2023-05-07T13:13:36;2.20;;;1.40;;
12171;SDS011;6149;52.418;13.668;2023-05-07T13:16:07;2.10;;;1.43;;
12171;SDS011;6149;52.418;13.668;2023-05-07T13:18:37;2.23;;;1.50;;
12171;SDS011;6149;52.418;13.668;2023-05-07T13:21:08;3.00;;;1.57;;
12171;SDS011;6149;52.418;13.668;2023-05-07T13:23:39;3.07;;;1.50;;
12171;SDS011;6149;52.418;13.668;2023-05-07T13:26:06;1.97;;;1.60;;
12171;SDS011;6149;52.418;13.668;2023-05-07T13:28:32;3.07;;;1.30;;
12171;SDS011;6149;52.418;13.668;2023-05-07T13:31:02;1.87;;;1.33;;
12171;SDS011;6149;52.418;13.668;2023-05-07T13:33:30;1.97;;;1.20;;
12171;SDS011;6149;52.418;13.668;2023-05-07T13:36:01;2.33;;;1.60;;
12171;SDS011;6149;52.418;13.668;2023-05-07T13:38:31;2.07;;;1.50;;
12171;SDS011;6149;52.418;13.668;2023-05-07T13:40:58;1.60;;;1.47;;
12171;SDS011;6149;52.418;13.668;2023-05-07T13:43:31;2.40;;;1.60;;
12171;SDS011;6149;52.418;13.668;2023-05-07T13:46:00;1.80;;;1.30;;
12171;SDS011;6149;52.418;13.668;2023-05-07T13:48:28;1.20;;;1.10;;
12171;SDS011;6149;52.418;13.668;2023-05-07T13:50:56;2.47;;;1.50;;
12171;SDS011;6149;52.418;13.668;2023-05-07T13:53:26;2.10;;;1.80;;
12171;SDS011;6149;52.418;13.668;2023-05-07T13:55:56;2.03;;;1.70;;
12171;SDS011;6149;52.418;13.668;2023-05-07T13:58:27;1.67;;;1.57;;
12171;SDS011;6149;52.418;13.668;2023-05-07T14:00:58;1.53;;;1.40;;
12171;SDS011;6149;52.418;13.668;2023-05-07T14:03:26;1.47;;;1.37;;
12171;SDS011;6149;52.418;13.668;2023-05-07T14:05:54;2.20;;;1.47;;
12171;SDS011;6149;52.418;13.668;2023-05-07T14:08:22;2.53;;;1.70;;
12171;SDS011;6149;52.418;13.668;2023-05-07T14:10:57;1.77;;;1.53;;
12171;SDS011;6149;52.418;13.668;2023-05-07T14:13:26;1.40;;;1.30;;
12171;SDS011;6149;52.418;13.668;2023-05-07T14:15:57;2.50;;;1.47;;
12171;SDS011;6149;52.418;13.668;2023-05-07T14:18:25;2.30;;;1.40;;
12171;SDS011;6149;52.418;13.668;2023-05-07T14:20:59;1.70;;;1.47;;
12171;SDS011;6149;52.418;13.668;2023-05-07T14:23:26;2.17;;;1.30;;
12171;SDS011;6149;52.418;13.668;2023-05-07T14:26:03;4.00;;;1.50;;
12171;SDS011;6149;52.418;13.668;2023-05-07T14:28:33;1.67;;;1.30;;
12171;SDS011;6149;52.418;13.668;2023-05-07T14:31:02;5.87;;;1.70;;
12171;SDS011;6149;52.418;13.668;2023-05-07T14:33:33;1.30;;;1.20;;
12171;SDS011;6149;52.418;13.668;2023-05-07T14:36:08;2.97;;;1.43;;
12171;SDS011;6149;52.418;13.668;2023-05-07T14:38:38;2.03;;;1.47;;
12171;SDS011;6149;52.418;13.668;2023-05-07T14:41:09;1.97;;;1.43;;
12171;SDS011;6149;52.418;13.668;2023-05-07T14:43:37;2.10;;;1.43;;
12171;SDS011;6149;52.418;13.668;2023-05-07T14:46:05;1.93;;;1.50;;
12171;SDS011;6149;52.418;13.668;2023-05-07T14:48:35;1.77;;;1.50;;
12171;SDS011;6149;52.418;13.668;2023-05-07T14:51:02;2.03;;;1.40;;
12171;SDS011;6149;52.418;13.668;2023-05-07T14:53:29;4.13;;;1.50;;
12171;SDS011;6149;52.418;13.668;2023-05-07T14:55:57;2.80;;;1.60;;
12171;SDS011;6149;52.418;13.668;2023-05-07T14:58:30;1.60;;;1.50;;
12171;SDS011;6149;52.418;13.668;2023-05-07T15:00:57;2.00;;;1.23;;
12171;SDS011;6149;52.418;13.668;2023-05-07T15:03:25;1.40;;;1.30;;
12171;SDS011;6149;52.418;13.668;2023-05-07T15:05:52;1.70;;;1.60;;